SBOSBO DXB / OMDB
Speedbird OnlineSpeedbird Online DXB / OMDB

Dubai International Airport
17:14 27.8°C

Location Dubai, United Arab Emirates
Latitude: 25.2527999878
Longitude: 55.3643989563
Web Airport Website | Wikipedia
Altitude 19 Meter / 62 Feet
Distance 5,459 KM / 3,392 Miles
from London.
Time Zone UTC +4 hours (Asia/Dubai)
Codes IATA: DXB
ICAO: OMDB
Currency £1 equals AED 4.54
Runways
RunwayLength (m)Surface
12L4351Asphalt
12R4447Asphalt
30L4447Asphalt
30R4351Asphalt
Radio
TypeDescriptionFrequency
ARRARR124.9
ATISATIS131.7
DEPDEP124.45
GNDGND118.35
TWRTWR118.75
Live ATC
METAR OMDB 311300Z 19009KT 150V210 CAVOK 28/08 Q1015 WS ALL RWY BECMG 35010KT
TAF TAF OMDB 311100Z 3112/0118 23008KT 8000 NSC BECMG 3112/3114 35010KT BECMG 3115/3117 14008KT BECMG 0110/0112 35010KT BECMG 0114/0116 10008KT
Weather As Of 31 Jan 2023 17:12
Description Clear sky
Wind 17 km/h from South (190°)
Cloud Cover 0%
Precipitation Rain: none, Snow: none
Sunrise 07:02
Sunset 18:01
Lounges British Airways Lounge (Open), Terminal 1
Marhaba Lounge, Terminal 1
Dubai International Hotel (DIH) - Ahlan Business Class Lounge TEMPORARILY CLOSED, Terminal 1
Marhaba Lounge, Terminal 3
The Gallery & Cadiz Lounge, Terminal 3
Emirates First Lounge, Terminal 3
Emirates Business Lounge, Terminal 3
Rotations During the last 90 days there were
221 flights from LHR
219 flights to LHR



Support Speedbird Online

© 2017-2023 Speedbird Online